Time;durP1;ratioP1;P1;durP2;ratioP2;P2;SDS_P1;SDS_P2;PMS_P1;PMS_P2;Temp;Humidity;BMP_temperature;BMP_pressure;BME280_temperature;BME280_humidity;BME280_pressure;Samples;Min_cycle;Max_cycle;Signal;HPM_P1;HPM_P2
2023/07/30 00:00:35;;;;;;;10.20;3.65;;;;;;;18.48;93.10;100812.38;5115945;28;20050;-61
2023/07/30 00:03:03;;;;;;;8.85;3.35;;;;;;;18.44;92.90;100805.88;5117146;28;20044;-63
2023/07/30 00:05:31;;;;;;;11.55;3.50;;;;;;;18.42;93.21;100802.63;5117403;28;20043;-62
2023/07/30 00:07:59;;;;;;;8.20;3.10;;;;;;;18.43;94.05;100802.31;5082775;28;20043;-63
2023/07/30 00:10:27;;;;;;;7.93;3.08;;;;;;;18.48;94.11;100815.16;5105681;28;20056;-61
2023/07/30 00:12:55;;;;;;;9.10;3.70;;;;;;;18.45;92.37;100807.53;5117886;28;20039;-61
2023/07/30 00:15:23;;;;;;;8.85;3.20;;;;;;;18.44;91.90;100805.88;5116887;28;20099;-61
2023/07/30 00:17:50;;;;;;;8.88;3.25;;;;;;;18.45;94.84;100807.53;5117181;28;20054;-62
2023/07/30 00:20:18;;;;;;;8.73;3.30;;;;;;;18.42;92.42;100802.63;5116081;28;20043;-62
2023/07/30 00:22:46;;;;;;;7.57;3.60;;;;;;;18.39;91.55;100800.53;5116565;28;20514;-61
2023/07/30 00:25:14;;;;;;;7.57;3.38;;;;;;;18.37;92.58;100805.53;5082478;28;20051;-61
2023/07/30 00:27:41;;;;;;;6.55;3.00;;;;;;;18.35;92.64;100805.88;5117626;28;20391;-63
2023/07/30 00:30:10;;;;;;;7.75;3.10;;;;;;;18.38;92.86;100807.19;5098186;28;20043;-64
2023/07/30 00:32:43;;;;;;;8.35;3.05;;;;;;;18.38;93.90;100798.91;5097277;28;20535;-62
2023/07/30 00:35:12;;;;;;;7.78;3.50;;;;;;;18.36;92.61;100803.94;5117069;28;20047;-62
2023/07/30 00:37:40;;;;;;;10.52;3.25;;;;;;;18.33;92.99;100807.31;5101459;28;20403;-62
2023/07/30 00:40:08;;;;;;;7.75;3.55;;;;;;;18.34;93.76;100811.72;5062677;28;20062;-61
2023/07/30 00:42:36;;;;;;;8.75;3.33;;;;;;;18.37;94.73;100805.53;5081597;28;20052;-61
2023/07/30 00:45:05;;;;;;;9.38;3.47;;;;;;;18.26;91.92;100805.84;5082075;28;20059;-60
2023/07/30 00:47:33;;;;;;;9.13;3.13;;;;;;;18.22;91.83;100807.63;5117369;28;20051;-60
2023/07/30 00:50:01;;;;;;;7.65;2.80;;;;;;;18.23;92.66;100806.50;5124314;28;20500;-60
2023/07/30 00:52:30;;;;;;;7.78;3.10;;;;;;;18.26;94.41;100811.38;5120695;28;20399;-62
2023/07/30 00:54:59;;;;;;;8.05;3.42;;;;;;;18.22;92.52;100813.13;5083778;28;20047;-61
2023/07/30 00:57:27;;;;;;;10.88;3.30;;;;;;;18.25;94.79;100808.91;5108416;28;20035;-61
2023/07/30 00:59:56;;;;;;;9.73;3.40;;;;;;;18.21;92.12;100818.97;5105577;28;20178;-63
2023/07/30 01:02:23;;;;;;;7.78;2.70;;;;;;;18.18;92.31;100817.66;5096271;28;20036;-61
2023/07/30 01:04:52;;;;;;;8.40;2.85;;;;;;;18.18;94.01;100817.66;5060781;28;20051;-61
2023/07/30 01:07:20;;;;;;;10.00;3.35;;;;;;;18.17;92.64;100818.78;5096512;28;20051;-61
2023/07/30 01:09:48;;;;;;;10.20;3.40;;;;;;;18.14;92.63;100824.97;5096023;28;20054;-60
2023/07/30 01:12:15;;;;;;;10.48;3.72;;;;;;;18.13;93.18;100828.03;5096990;28;20040;-62
2023/07/30 01:14:45;;;;;;;10.63;4.80;;;;;;;18.13;93.55;100831.59;5108923;28;20122;-62
2023/07/30 01:17:13;;;;;;;11.98;3.80;;;;;;;18.10;92.75;100840.50;5128825;28;20043;-63
2023/07/30 01:19:40;;;;;;;10.20;3.80;;;;;;;18.10;93.51;100838.56;5106810;28;20119;-62
2023/07/30 01:22:08;;;;;;;8.60;3.33;;;;;;;18.14;95.55;100838.75;5079503;28;20132;-64
2023/07/30 01:24:36;;;;;;;11.68;3.17;;;;;;;18.11;95.76;100842.13;5106529;28;20126;-62
2023/07/30 01:27:11;;;;;;;8.18;3.40;;;;;;;18.09;95.32;100847.97;5089175;28;20059;-61
2023/07/30 01:29:42;;;;;;;8.98;3.10;;;;;;;18.08;94.06;100842.75;5072165;28;20140;-64
2023/07/30 01:32:12;;;;;;;8.60;3.08;;;;;;;18.09;95.26;100838.88;5062408;28;20452;-62
2023/07/30 01:34:41;;;;;;;12.00;3.15;;;;;;;18.05;94.20;100848.91;5062150;28;20073;-61
2023/07/30 01:37:12;;;;;;;11.88;3.75;;;;;;;17.99;93.13;100848.25;5077415;28;20059;-62
2023/07/30 01:39:41;;;;;;;11.27;3.67;;;;;;;17.96;92.96;100848.06;5095682;28;20437;-61
2023/07/30 01:42:12;;;;;;;10.95;3.28;;;;;;;17.94;94.10;100853.06;5088639;28;20050;-63
2023/07/30 01:44:40;;;;;;;10.57;3.92;;;;;;;17.91;93.82;100862.78;5095879;28;20044;-61
2023/07/30 01:47:09;;;;;;;6.45;3.15;;;;;;;17.89;94.05;100867.81;5097303;28;20048;-60
2023/07/30 01:49:37;;;;;;;7.82;2.83;;;;;;;17.92;96.25;100864.44;5080490;28;20046;-61
2023/07/30 01:52:05;;;;;;;9.50;3.25;;;;;;;18.11;98.09;100861.41;5115220;28;20480;-61
2023/07/30 01:54:32;;;;;;;8.95;3.65;;;;;;;18.00;95.30;100862.84;5065418;28;20046;-63
2023/07/30 01:57:01;;;;;;;8.45;3.28;;;;;;;17.94;95.18;100869.63;5094300;28;20117;-61
2023/07/30 01:59:29;;;;;;;9.27;3.17;;;;;;;17.96;97.31;100857.13;5077100;28;20052;-62
2023/07/30 02:01:56;;;;;;;9.38;3.25;;;;;;;17.88;94.64;100858.72;5060308;28;20051;-61
2023/07/30 02:04:24;;;;;;;10.88;3.70;;;;;;;17.73;93.91;100864.63;5085460;28;20043;-62
2023/07/30 02:06:52;;;;;;;9.48;3.58;;;;;;;17.70;94.57;100859.72;5095339;28;20055;-62
2023/07/30 02:09:21;;;;;;;10.65;3.10;;;;;;;17.63;93.87;100857.44;5097052;28;20483;-62
2023/07/30 02:11:49;;;;;;;10.15;3.70;;;;;;;17.59;94.64;100863.88;5080360;28;20043;-60
2023/07/30 02:14:17;;;;;;;10.38;3.90;;;;;;;17.61;94.85;100861.63;5113773;28;20050;-63
2023/07/30 02:16:45;;;;;;;7.32;2.80;;;;;;;17.59;94.76;100867.44;5075937;28;20054;-61
2023/07/30 02:19:13;;;;;;;10.02;3.33;;;;;;;17.60;95.12;100855.28;5098810;28;20058;-63
2023/07/30 02:21:42;;;;;;;8.05;2.83;;;;;;;17.58;95.36;100862.25;5116091;28;20047;-61
2023/07/30 02:24:11;;;;;;;10.18;3.67;;;;;;;17.68;97.74;100859.25;5098264;28;20046;-61
2023/07/30 02:26:39;;;;;;;10.85;3.30;;;;;;;17.68;96.16;100850.97;5090100;28;20048;-61
2023/07/30 02:29:07;;;;;;;8.75;3.10;;;;;;;17.60;96.43;100849.78;5077403;28;20048;-59
2023/07/30 02:31:35;;;;;;;14.27;3.55;;;;;;;17.56;96.49;100854.31;5097979;28;20118;-60
2023/07/30 02:34:03;;;;;;;10.93;3.42;;;;;;;17.54;96.79;100850.25;5097290;28;20384;-62
2023/07/30 02:36:31;;;;;;;12.57;3.90;;;;;;;17.60;97.64;100848.97;5098499;28;20132;-60
2023/07/30 02:38:59;;;;;;;10.15;3.92;;;;;;;17.60;97.20;100849.78;5096918;28;20040;-60
2023/07/30 02:41:27;;;;;;;11.75;3.80;;;;;;;17.51;97.01;100845.34;5096966;28;20062;-62
2023/07/30 02:43:55;;;;;;;12.60;4.30;;;;;;;17.43;97.58;100844.97;5113522;28;20049;-60
2023/07/30 02:46:23;;;;;;;9.27;3.47;;;;;;;17.49;99.80;100842.13;5063101;28;20069;-63
2023/07/30 02:48:50;;;;;;;11.65;4.18;;;;;;;17.46;98.55;100838.84;5114492;28;20047;-60
2023/07/30 02:51:18;;;;;;;12.68;4.13;;;;;;;17.46;98.51;100836.09;5079578;28;20100;-64
2023/07/30 02:53:46;;;;;;;8.68;3.60;;;;;;;17.49;98.65;100834.66;5112303;28;20035;-62
2023/07/30 02:56:14;;;;;;;13.18;4.45;;;;;;;17.46;98.37;100830.59;5076666;28;20399;-62
2023/07/30 02:58:42;;;;;;;11.20;4.18;;;;;;;17.46;98.61;100833.34;5076603;28;20055;-60
2023/07/30 03:01:09;;;;;;;12.45;4.53;;;;;;;17.57;99.64;100839.41;5059429;28;20063;-60
2023/07/30 03:03:37;;;;;;;14.07;4.25;;;;;;;17.51;99.05;100837.06;5078442;28;20127;-63
2023/07/30 03:06:06;;;;;;;15.55;4.50;;;;;;;17.54;99.66;100844.72;5095490;28;20058;-60
2023/07/30 03:08:35;;;;;;;14.02;4.82;;;;;;;17.54;99.66;100845.53;5114031;28;20088;-62
2023/07/30 03:11:03;;;;;;;12.55;4.40;;;;;;;17.55;99.69;100846.34;5079057;28;20047;-61
2023/07/30 03:13:31;;;;;;;13.00;4.70;;;;;;;17.49;99.79;100853.13;5112900;28;20040;-59
2023/07/30 03:15:59;;;;;;;14.52;4.75;;;;;;;17.54;100.00;100850.25;5113150;28;20044;-60
2023/07/30 03:18:27;;;;;;;13.30;4.55;;;;;;;17.48;100.00;100857.81;5114315;28;20058;-61
2023/07/30 03:21:00;;;;;;;16.30;5.63;;;;;;;17.47;100.00;100850.69;5094778;28;20054;-62
2023/07/30 03:23:28;;;;;;;18.70;5.22;;;;;;;17.44;100.00;100852.13;5111816;28;20096;-61
2023/07/30 03:25:55;;;;;;;12.30;4.50;;;;;;;17.41;100.00;100855.50;5078537;28;20050;-59
2023/07/30 03:28:23;;;;;;;18.73;5.78;;;;;;;17.42;100.00;100854.38;5114528;28;20051;-61
2023/07/30 03:30:51;;;;;;;14.77;5.03;;;;;;;17.51;100.00;100853.59;5095833;28;20040;-62
2023/07/30 03:33:21;;;;;;;14.07;4.45;;;;;;;17.48;100.00;100846.78;5094832;28;20054;-62
2023/07/30 03:35:51;;;;;;;17.77;5.65;;;;;;;17.43;100.00;100855.19;5095491;28;20104;-61
2023/07/30 03:38:18;;;;;;;12.40;4.53;;;;;;;17.45;100.00;100852.94;5096255;28;20070;-61
2023/07/30 03:40:46;;;;;;;16.92;5.40;;;;;;;17.43;100.00;100858.75;5114351;28;20044;-61
2023/07/30 03:43:14;;;;;;;14.10;4.65;;;;;;;17.39;100.00;100860.50;5094356;28;20376;-61
2023/07/30 03:45:42;;;;;;;5.75;2.70;;;;;;;17.51;100.00;100850.84;5095778;28;20063;-61
2023/07/30 03:48:10;;;;;;;15.80;4.85;;;;;;;17.51;100.00;100857.19;5110883;28;20062;-63
2023/07/30 03:50:37;;;;;;;10.23;4.07;;;;;;;17.51;100.00;100857.19;5093186;28;20044;-61
2023/07/30 03:53:05;;;;;;;12.48;4.35;;;;;;;17.55;100.00;100857.38;5058831;28;20109;-63
2023/07/30 03:55:33;;;;;;;11.75;4.50;;;;;;;17.54;100.00;100864.03;5109736;28;20456;-59
2023/07/30 03:58:01;;;;;;;16.50;4.78;;;;;;;17.57;100.00;100868.91;5113830;28;20069;-60
2023/07/30 04:00:29;;;;;;;18.55;5.35;;;;;;;17.53;100.00;100870.63;5112487;28;20077;-60
2023/07/30 04:02:57;;;;;;;11.98;4.22;;;;;;;17.55;100.00;100865.63;5113221;28;20051;-60
2023/07/30 04:05:25;;;;;;;17.50;6.03;;;;;;;17.61;100.00;100878.97;5115999;28;20043;-60
2023/07/30 04:07:53;;;;;;;14.82;4.07;;;;;;;17.55;100.00;100873.91;5132987;27;20127;-61
2023/07/30 04:10:20;;;;;;;11.25;4.03;;;;;;;17.55;100.00;100874.72;5117113;28;20044;-61
2023/07/30 04:12:48;;;;;;;13.43;4.93;;;;;;;17.57;100.00;100868.91;5116252;28;20088;-63
2023/07/30 04:15:16;;;;;;;12.65;4.63;;;;;;;17.57;100.00;100874.41;5114430;28;20068;-63
2023/07/30 04:17:44;;;;;;;14.32;5.88;;;;;;;17.60;100.00;100876.53;5116253;28;20074;-61
2023/07/30 04:20:12;;;;;;;12.45;4.38;;;;;;;17.53;100.00;100879.72;5116030;28;20043;-61
2023/07/30 04:22:41;;;;;;;15.40;4.53;;;;;;;17.48;100.00;100873.53;5117589;28;20047;-61
2023/07/30 04:25:10;;;;;;;14.27;4.57;;;;;;;17.45;100.00;100873.03;5113382;28;20109;-63
2023/07/30 04:27:39;;;;;;;16.20;5.20;;;;;;;17.39;100.00;100877.03;5079236;28;20105;-60
2023/07/30 04:30:07;;;;;;;18.08;6.00;;;;;;;17.40;100.00;100888.88;5096754;28;20392;-61
2023/07/30 04:32:36;;;;;;;13.65;4.95;;;;;;;17.37;100.00;100879.28;5095123;28;20117;-62
2023/07/30 04:35:04;;;;;;;13.57;5.07;;;;;;;17.41;100.00;100880.31;5096400;28;20040;-60
2023/07/30 04:37:33;;;;;;;17.45;5.03;;;;;;;17.43;100.00;100888.22;5072072;28;20052;-61
2023/07/30 04:40:00;;;;;;;14.05;4.50;;;;;;;17.43;100.00;100885.47;5121589;27;20057;-61
2023/07/30 04:42:31;;;;;;;18.30;5.40;;;;;;;17.41;100.00;100885.81;5115930;28;20043;-61
2023/07/30 04:44:59;;;;;;;14.77;4.50;;;;;;;17.46;100.00;100882.94;5098233;28;20056;-62
2023/07/30 04:47:26;;;;;;;20.20;5.57;;;;;;;17.41;100.00;100894.06;5110293;28;20060;-64
2023/07/30 04:49:54;;;;;;;17.27;4.68;;;;;;;17.37;100.00;100886.75;5115776;28;20487;-62
2023/07/30 04:52:22;;;;;;;17.02;5.00;;;;;;;17.39;100.00;100888.06;5115514;28;20122;-64
2023/07/30 04:54:50;;;;;;;15.88;4.75;;;;;;;17.38;100.00;100880.91;5116433;28;20147;-61
2023/07/30 04:57:18;;;;;;;20.75;6.00;;;;;;;17.49;100.00;100886.19;5097980;28;20394;-61
2023/07/30 04:59:45;;;;;;;16.40;5.57;;;;;;;17.45;100.00;100886.78;5116659;28;20044;-62
2023/07/30 05:02:13;;;;;;;17.45;4.93;;;;;;;17.44;100.00;100885.19;5115656;28;20140;-63
2023/07/30 05:04:41;;;;;;;14.93;4.55;;;;;;;17.38;100.00;100891.91;5115413;28;20043;-63
2023/07/30 05:07:09;;;;;;;13.40;4.45;;;;;;;17.39;100.00;100892.72;5115994;28;20048;-65
2023/07/30 05:09:37;;;;;;;20.20;5.75;;;;;;;17.37;100.00;100895.81;5113052;28;20151;-63
2023/07/30 05:12:05;;;;;;;17.90;4.97;;;;;;;17.50;100.00;100893.31;5114376;28;20056;-63
2023/07/30 05:14:33;;;;;;;17.85;5.45;;;;;;;17.48;100.00;100895.56;5114107;28;20092;-64
2023/07/30 05:17:00;;;;;;;18.50;5.78;;;;;;;17.42;100.00;100903.94;5114664;28;20406;-63
2023/07/30 05:19:28;;;;;;;13.88;4.65;;;;;;;17.46;100.00;100901.38;5113913;28;20035;-61
2023/07/30 05:21:56;;;;;;;20.38;5.50;;;;;;;17.51;100.00;100912.28;5116097;28;20044;-62
2023/07/30 05:24:24;;;;;;;16.98;5.10;;;;;;;17.49;100.00;100908.22;5116162;28;20050;-64
2023/07/30 05:26:52;;;;;;;12.80;4.10;;;;;;;17.48;100.00;100912.09;5115214;28;20055;-61
2023/07/30 05:29:19;;;;;;;15.85;4.93;;;;;;;17.41;100.00;100916.09;5113377;28;20049;-61
2023/07/30 05:31:47;;;;;;;15.43;4.85;;;;;;;17.43;100.00;100919.34;5101891;28;20056;-61
2023/07/30 05:34:15;;;;;;;18.25;5.68;;;;;;;17.45;100.00;100913.53;5111547;28;20084;-62
2023/07/30 05:36:43;;;;;;;12.65;4.13;;;;;;;17.36;100.00;100921.72;5094270;28;20048;-62
2023/07/30 05:39:10;;;;;;;17.02;4.97;;;;;;;17.28;100.00;100910.66;5097969;28;20110;-61
2023/07/30 05:41:38;;;;;;;14.80;4.68;;;;;;;17.50;100.00;100909.84;5108141;28;20107;-62
2023/07/30 05:44:06;;;;;;;14.68;4.57;;;;;;;17.52;100.00;100908.41;5130453;28;20048;-63
2023/07/30 05:46:34;;;;;;;18.83;5.25;;;;;;;17.52;100.00;100908.41;5106360;28;20043;-61
2023/07/30 05:49:02;;;;;;;17.08;5.30;;;;;;;17.55;100.00;100912.47;5127644;28;20403;-62
2023/07/30 05:51:30;;;;;;;17.70;5.30;;;;;;;17.58;100.00;100912.69;5087855;28;20047;-61
2023/07/30 05:53:57;;;;;;;20.50;5.57;;;;;;;17.57;100.00;100910.22;5092175;28;20050;-62
2023/07/30 05:56:25;;;;;;;21.95;6.45;;;;;;;17.53;100.00;100906.44;5126119;28;20126;-63
2023/07/30 05:58:53;;;;;;;17.23;5.75;;;;;;;17.51;100.00;100906.78;5115438;28;20052;-62
2023/07/30 06:01:21;;;;;;;19.92;5.28;;;;;;;17.40;100.00;100910.91;5111404;28;20036;-63
2023/07/30 06:03:49;;;;;;;15.00;4.68;;;;;;;17.41;100.00;100902.34;5091126;28;20047;-60
2023/07/30 06:06:17;;;;;;;23.15;6.35;;;;;;;17.43;100.00;100908.31;5106538;28;20048;-62
2023/07/30 06:08:45;;;;;;;21.77;6.43;;;;;;;17.35;100.00;100911.03;5094354;28;20399;-63
2023/07/30 06:11:12;;;;;;;12.52;3.92;;;;;;;17.46;100.00;100910.47;5079775;28;20058;-63
2023/07/30 06:13:40;;;;;;;17.85;5.70;;;;;;;17.54;100.00;100908.91;5114919;28;20039;-62
2023/07/30 06:16:10;;;;;;;11.45;3.38;;;;;;;17.65;100.00;100914.97;5087922;28;20046;-62
2023/07/30 06:18:38;;;;;;;25.45;7.10;;;;;;;17.60;100.00;100915.09;5078583;28;20051;-61
2023/07/30 06:21:05;;;;;;;20.92;6.18;;;;;;;17.58;100.00;100914.59;5114194;28;20074;-61
2023/07/30 06:23:33;;;;;;;21.08;5.70;;;;;;;17.59;100.00;100917.03;5103012;28;20051;-62
2023/07/30 06:26:01;;;;;;;20.17;6.10;;;;;;;17.51;100.00;100922.47;5114053;28;20052;-62
2023/07/30 06:28:29;;;;;;;18.27;5.68;;;;;;;17.59;100.00;100913.47;5095813;28;20487;-62
2023/07/30 06:31:01;;;;;;;21.38;6.15;;;;;;;17.53;100.00;100920.22;5106999;28;20081;-63
2023/07/30 06:33:29;;;;;;;21.52;6.40;;;;;;;17.52;100.00;100913.09;5093714;28;20047;-62
2023/07/30 06:35:59;;;;;;;21.67;7.03;;;;;;;17.56;100.00;100908.59;5075839;28;20392;-63
2023/07/30 06:38:27;;;;;;;22.58;5.45;;;;;;;17.52;100.00;100908.41;5075825;28;20051;-61
2023/07/30 06:40:57;;;;;;;21.40;5.55;;;;;;;17.53;100.00;100921.03;5107355;28;20044;-61
2023/07/30 06:43:25;;;;;;;15.10;4.20;;;;;;;17.57;100.00;100921.25;5113734;28;20047;-61
2023/07/30 06:45:54;;;;;;;15.10;5.75;;;;;;;17.55;100.00;100912.47;5103405;28;20112;-60
2023/07/30 06:48:22;;;;;;;20.60;5.82;;;;;;;17.50;100.00;100915.34;5094028;28;20058;-61
2023/07/30 06:50:50;;;;;;;16.75;4.82;;;;;;;17.53;100.00;100915.53;5059268;28;20051;-62
2023/07/30 06:53:18;;;;;;;22.60;5.47;;;;;;;17.58;100.00;100909.91;5109888;28;20043;-61
2023/07/30 06:55:45;;;;;;;21.05;5.93;;;;;;;17.57;100.00;100916.53;5097774;28;20055;-62
2023/07/30 06:58:14;;;;;;;23.02;6.82;;;;;;;17.55;100.00;100918.78;5101075;28;20055;-63
2023/07/30 07:00:41;;;;;;;29.48;7.72;;;;;;;17.65;100.00;100917.72;5072197;28;20048;-62
2023/07/30 07:03:09;;;;;;;25.20;6.55;;;;;;;17.79;100.00;100921.22;5108996;28;20044;-62
2023/07/30 07:05:37;;;;;;;25.23;7.10;;;;;;;17.77;100.00;100912.44;5095739;28;20501;-61
2023/07/30 07:08:05;;;;;;;22.83;7.18;;;;;;;17.79;100.00;100914.91;5112633;28;20036;-62
2023/07/30 07:10:33;;;;;;;25.23;5.57;;;;;;;17.72;100.00;100912.59;5076059;28;20061;-61
2023/07/30 07:13:01;;;;;;;26.00;6.68;;;;;;;17.74;100.00;100921.34;5111477;28;20047;-63
2023/07/30 07:15:28;;;;;;;19.52;6.07;;;;;;;17.73;100.00;100925.25;5095016;28;20052;-63
2023/07/30 07:17:56;;;;;;;24.52;6.97;;;;;;;17.74;100.00;100921.34;5113368;28;20055;-63
2023/07/30 07:20:24;;;;;;;18.70;5.55;;;;;;;17.74;100.00;100926.06;5113117;28;20054;-63
2023/07/30 07:22:52;;;;;;;26.00;6.43;;;;;;;17.75;100.00;100922.16;5113945;28;20040;-61
2023/07/30 07:25:20;;;;;;;21.80;6.28;;;;;;;17.80;100.00;100935.84;5114379;28;20043;-62
2023/07/30 07:27:48;;;;;;;23.23;6.22;;;;;;;17.74;100.00;100940.66;5115239;28;20088;-64
2023/07/30 07:30:16;;;;;;;25.88;6.63;;;;;;;17.77;100.00;100926.22;5101909;28;20044;-62
2023/07/30 07:32:44;;;;;;;23.17;5.10;;;;;;;17.75;100.00;100925.75;5076786;28;20077;-59
2023/07/30 07:35:12;;;;;;;24.42;6.78;;;;;;;17.86;100.00;100918.06;5113610;28;20496;-62
2023/07/30 07:37:40;;;;;;;32.08;8.05;;;;;;;17.92;100.00;100922.34;5114348;28;20047;-61
2023/07/30 07:40:09;;;;;;;20.73;6.18;;;;;;;17.95;100.00;100926.41;5109484;28;20051;-62
2023/07/30 07:42:39;;;;;;;31.13;7.75;;;;;;;17.97;100.00;100918.63;5117848;28;20078;-62
2023/07/30 07:45:07;;;;;;;19.60;6.70;;;;;;;17.97;100.00;100930.47;5080618;28;20483;-61
2023/07/30 07:47:35;;;;;;;25.63;6.18;;;;;;;18.04;100.00;100924.50;5117594;28;20100;-62
2023/07/30 07:50:03;;;;;;;19.42;5.13;;;;;;;17.96;100.00;100934.34;5117809;28;20055;-62
2023/07/30 07:52:31;;;;;;;19.90;5.60;;;;;;;17.97;100.00;100938.72;5117025;28;20047;-64
2023/07/30 07:54:59;;;;;;;28.80;5.63;;;;;;;17.97;100.00;100929.66;5077849;28;20070;-62
2023/07/30 07:57:27;;;;;;;21.08;6.43;;;;;;;18.05;100.00;100939.91;5079377;28;20052;-59
2023/07/30 07:59:54;;;;;;;22.98;6.55;;;;;;;18.19;100.00;100950.88;5078899;28;20393;-62
2023/07/30 08:02:23;;;;;;;22.15;6.55;;;;;;;18.21;100.00;100957.69;5046087;28;20050;-62
2023/07/30 08:04:51;;;;;;;26.02;7.82;;;;;;;18.20;100.00;100955.22;5095606;28;20380;-64
2023/07/30 08:07:19;;;;;;;26.40;5.97;;;;;;;18.18;100.00;100947.25;5099654;28;20472;-61
2023/07/30 08:09:47;;;;;;;21.20;5.60;;;;;;;18.22;100.00;100948.28;5117322;28;20048;-62
2023/07/30 08:12:15;;;;;;;20.70;5.55;;;;;;;18.09;100.00;100961.03;5117393;28;20043;-62
2023/07/30 08:14:43;;;;;;;23.70;6.18;;;;;;;18.14;100.00;100945.50;5097203;28;20043;-61
2023/07/30 08:17:11;;;;;;;20.83;5.60;;;;;;;18.09;100.00;100946.44;5097159;28;20040;-63
2023/07/30 08:19:38;;;;;;;21.45;6.13;;;;;;;18.15;100.00;100934.13;5041992;28;20049;-60
2023/07/30 08:22:06;;;;;;;17.40;5.38;;;;;;;18.12;100.00;100943.03;5079167;28;20070;-62
2023/07/30 08:24:34;;;;;;;21.52;6.03;;;;;;;18.17;100.00;100947.59;5095314;28;20048;-61
2023/07/30 08:27:02;;;;;;;23.77;5.90;;;;;;;18.08;100.00;100947.53;5117225;28;20044;-62
2023/07/30 08:29:29;;;;;;;22.92;5.22;;;;;;;17.96;100.00;100961.91;5099066;28;20077;-61
2023/07/30 08:31:59;;;;;;;26.63;6.05;;;;;;;17.97;100.00;100962.75;5117276;28;20044;-63
2023/07/30 08:34:27;;;;;;;15.30;4.25;;;;;;;18.05;100.00;100953.69;5097551;28;20085;-60
2023/07/30 08:36:54;;;;;;;28.63;5.47;;;;;;;17.97;100.00;100957.22;5080037;28;20056;-58
2023/07/30 08:39:22;;;;;;;21.58;5.45;;;;;;;18.03;100.00;100961.47;5097074;28;20040;-62
2023/07/30 08:41:50;;;;;;;19.40;5.80;;;;;;;18.20;100.00;100942.25;5097561;28;20044;-60
2023/07/30 08:44:18;;;;;;;18.25;6.05;;;;;;;18.35;100.00;100948.50;5113327;28;20415;-60
2023/07/30 08:46:45;;;;;;;15.90;4.90;;;;;;;18.26;100.00;100962.25;5116374;28;20051;-59
2023/07/30 08:49:13;;;;;;;17.77;5.18;;;;;;;18.20;100.00;100964.31;5081955;28;20047;-59
2023/07/30 08:51:42;;;;;;;16.15;4.40;;;;;;;18.18;100.00;100952.78;5116808;28;20498;-57
2023/07/30 08:54:11;;;;;;;23.20;5.65;;;;;;;18.14;100.00;100968.34;5116391;28;20043;-61
2023/07/30 08:56:39;;;;;;;17.05;4.75;;;;;;;18.08;100.00;100969.59;5081526;28;20509;-61
2023/07/30 08:59:07;;;;;;;23.33;5.85;;;;;;;18.03;100.00;100973.31;5116818;28;20053;-60
2023/07/30 09:01:37;;;;;;;22.27;5.65;;;;;;;17.98;100.00;100978.13;5116609;28;20054;-57
2023/07/30 09:04:07;;;;;;;23.08;4.72;;;;;;;17.96;100.00;100972.13;5116145;28;20050;-61
2023/07/30 09:06:34;;;;;;;23.98;4.82;;;;;;;18.04;100.00;100969.44;5115978;28;20047;-61
2023/07/30 09:09:03;;;;;;;16.52;4.93;;;;;;;18.16;100.00;100977.13;5098603;28;20044;-61
2023/07/30 09:11:30;;;;;;;24.45;5.60;;;;;;;18.20;100.00;100975.34;5116144;28;20043;-61
2023/07/30 09:14:01;;;;;;;20.92;4.88;;;;;;;18.13;100.00;100966.72;5097979;28;20040;-60
2023/07/30 09:16:29;;;;;;;16.50;4.70;;;;;;;18.15;100.00;100975.50;5115850;28;20052;-62
2023/07/30 09:18:57;;;;;;;25.92;5.03;;;;;;;18.13;100.00;100974.19;5116023;28;20137;-60
2023/07/30 09:21:35;;;;;;;17.92;4.97;;;;;;;18.21;100.00;100973.44;5097956;28;20057;-60
2023/07/30 09:24:07;;;;;;;19.55;4.65;;;;;;;18.28;100.00;100966.31;5077177;28;20037;-61
2023/07/30 09:26:44;;;;;;;10.93;3.42;;;;;;;18.28;100.00;100966.31;5095930;28;20407;-61
2023/07/30 09:29:12;;;;;;;15.95;4.97;;;;;;;18.38;100.00;100967.19;5061101;28;20101;-60
2023/07/30 09:31:51;;;;;;;13.02;3.78;;;;;;;18.43;98.02;100961.53;5097525;28;20048;-61
2023/07/30 09:34:20;;;;;;;15.82;3.78;;;;;;;18.58;96.81;100971.31;5095350;28;20047;-62
2023/07/30 09:36:52;;;;;;;17.30;4.30;;;;;;;18.50;97.36;100972.91;5077641;28;20052;-62
2023/07/30 09:39:25;;;;;;;16.45;3.75;;;;;;;18.50;97.63;100965.44;5095449;28;20055;-61
2023/07/30 09:41:59;;;;;;;13.18;3.78;;;;;;;18.50;98.14;100975.69;5077524;28;20048;-61
2023/07/30 09:44:27;;;;;;;18.00;4.38;;;;;;;18.52;98.30;100968.72;5078245;28;20051;-63
2023/07/30 09:46:55;;;;;;;14.23;4.20;;;;;;;18.53;97.47;100964.81;5097097;28;20093;-63
2023/07/30 09:49:23;;;;;;;17.35;4.43;;;;;;;18.54;98.31;100962.84;5098038;28;20484;-61
2023/07/30 09:51:54;;;;;;;22.33;5.55;;;;;;;18.55;98.93;100961.75;5115394;28;20036;-62
2023/07/30 09:54:22;;;;;;;15.68;4.13;;;;;;;18.49;98.57;100957.47;5097721;28;20039;-62
2023/07/30 09:56:50;;;;;;;10.48;3.55;;;;;;;18.59;100.00;100943.41;5115487;28;20048;-63
2023/07/30 09:59:18;;;;;;;15.18;4.20;;;;;;;18.55;94.98;100964.50;5115860;28;20051;-63
2023/07/30 10:01:53;;;;;;;11.50;3.53;;;;;;;18.44;96.81;100983.25;5096790;28;20043;-61
2023/07/30 10:04:21;;;;;;;11.68;4.18;;;;;;;18.51;100.00;100982.81;5101269;28;20065;-62
2023/07/30 10:07:08;;;;;;;14.40;4.47;;;;;;;18.40;100.00;100987.81;5130882;28;20097;-62
2023/07/30 10:09:43;;;;;;;20.85;5.15;;;;;;;18.17;100.00;100995.28;5112159;28;20400;-63
2023/07/30 10:12:13;;;;;;;16.75;4.20;;;;;;;18.04;100.00;101002.53;5082150;28;20051;-62
2023/07/30 10:14:42;;;;;;;16.27;4.93;;;;;;;17.92;100.00;101038.13;5085634;28;20043;-64
2023/07/30 10:17:11;;;;;;;13.65;3.95;;;;;;;17.73;100.00;101023.66;5092010;28;20435;-61
2023/07/30 10:19:39;;;;;;;13.13;3.97;;;;;;;17.44;100.00;101022.09;5092579;28;20040;-63
2023/07/30 10:22:13;;;;;;;6.10;2.10;;;;;;;17.12;100.00;101021.09;5088015;28;20095;-61
2023/07/30 10:24:57;;;;;;;9.05;2.45;;;;;;;17.09;100.00;101031.94;5098511;28;20048;-63
2023/07/30 10:27:36;;;;;;;9.88;2.42;;;;;;;17.12;100.00;101031.31;5097091;28;20385;-64
2023/07/30 10:30:18;;;;;;;7.70;2.33;;;;;;;17.22;100.00;101029.19;5115790;28;20055;-64
2023/07/30 10:32:55;;;;;;;9.98;2.35;;;;;;;17.30;100.00;101030.38;5074390;28;20400;-61
2023/07/30 10:35:39;;;;;;;7.47;2.80;;;;;;;17.28;100.00;101034.56;5114645;28;20040;-61
2023/07/30 10:38:17;;;;;;;8.30;2.92;;;;;;;17.26;100.00;101037.63;5096335;28;20398;-62
2023/07/30 10:41:16;;;;;;;9.50;3.00;;;;;;;17.23;100.00;101027.22;5114388;28;20044;-62
2023/07/30 10:43:47;;;;;;;10.85;3.15;;;;;;;17.27;100.00;101024.66;5112305;28;20074;-63
2023/07/30 10:46:18;;;;;;;11.48;3.50;;;;;;;17.22;100.00;101025.59;5114085;28;20056;-62
2023/07/30 10:48:47;;;;;;;11.98;3.25;;;;;;;17.19;100.00;101032.53;5114005;28;20059;-61
2023/07/30 10:51:17;;;;;;;9.98;3.30;;;;;;;17.17;100.00;101042.22;5078715;28;20495;-66
2023/07/30 10:53:46;;;;;;;11.77;3.38;;;;;;;17.19;100.00;101048.22;5093757;28;20048;-61
2023/07/30 10:56:17;;;;;;;14.18;3.40;;;;;;;17.21;100.00;101035.78;5059562;28;20043;-63
2023/07/30 10:58:51;;;;;;;13.20;3.83;;;;;;;17.33;100.00;101032.50;5081232;28;20043;-63
2023/07/30 11:01:20;;;;;;;9.65;3.30;;;;;;;17.38;100.00;101029.63;5095682;28;20051;-61
2023/07/30 11:03:51;;;;;;;14.13;3.80;;;;;;;17.49;100.00;101032.19;5096632;28;20048;-61
2023/07/30 11:06:26;;;;;;;12.07;3.55;;;;;;;17.60;100.00;101030.81;5114179;28;20491;-62
2023/07/30 11:08:54;;;;;;;14.02;3.53;;;;;;;17.69;100.00;101034.47;5096082;28;20044;-62
2023/07/30 11:11:25;;;;;;;9.13;3.00;;;;;;;17.86;100.00;101033.84;5094834;28;20052;-62
2023/07/30 11:13:53;;;;;;;15.40;4.15;;;;;;;17.98;100.00;101031.34;5095753;28;20407;-62
2023/07/30 11:16:21;;;;;;;14.20;4.28;;;;;;;18.13;100.00;101023.81;5094656;28;20048;-62
2023/07/30 11:18:50;;;;;;;18.33;4.40;;;;;;;18.16;100.00;101026.78;5111369;28;20050;-65
2023/07/30 11:21:18;;;;;;;14.82;3.95;;;;;;;18.19;100.00;101030.84;5096943;28;20044;-64